Pil'Vo, Russia
Current Conditions -  °F | °C
As of 2:00 AM on Friday 31 Oct 2014 (Local Time) from UHSS Reporting Station
Scattered Clouds Scattered Clouds  
Wind Chill: 41°   Ceiling: Unl
Heat Index: 41°   Visibility: 5mi
Dew Point: 37°   Wind: 0mph
Humidity: 87%   Direction: NA
Pressure: 30.15"   Gusts: NA
Location:  50.05°N, 142.17°E
Report Text: UHSS 301500Z 00000MPS 8000 SCT040CB 05/03 Q1021 RMKQFE764/1019
Loading
Personal Weather Stations






























Interactive Weather Map
Tropical Storm Tracking
New forecast layout! Learn more

10-Day Weather Forecast

Advertisements
Track Severe Weather on mobile